sensor_id;sensor_type;location;lat;lon;timestamp;temperature;humidity
30304;DHT22;17112;48.636;10.152;2023-08-07T00:02:07;13.90;72.40
30304;DHT22;17112;48.636;10.152;2023-08-07T00:04:33;13.90;72.30
30304;DHT22;17112;48.636;10.152;2023-08-07T00:06:59;14.00;72.50
30304;DHT22;17112;48.636;10.152;2023-08-07T00:09:24;13.90;72.50
30304;DHT22;17112;48.636;10.152;2023-08-07T00:11:50;13.90;72.40
30304;DHT22;17112;48.636;10.152;2023-08-07T00:14:16;13.90;72.60
30304;DHT22;17112;48.636;10.152;2023-08-07T00:16:41;13.90;72.50
30304;DHT22;17112;48.636;10.152;2023-08-07T00:19:07;14.00;72.70
30304;DHT22;17112;48.636;10.152;2023-08-07T00:21:33;13.90;72.90
30304;DHT22;17112;48.636;10.152;2023-08-07T00:24:01;13.90;72.70
30304;DHT22;17112;48.636;10.152;2023-08-07T00:26:27;13.90;72.70
30304;DHT22;17112;48.636;10.152;2023-08-07T00:28:52;13.90;72.60
30304;DHT22;17112;48.636;10.152;2023-08-07T00:31:18;13.90;72.60
30304;DHT22;17112;48.636;10.152;2023-08-07T00:33:43;13.90;72.60
30304;DHT22;17112;48.636;10.152;2023-08-07T00:36:09;13.90;72.40
30304;DHT22;17112;48.636;10.152;2023-08-07T00:38:35;13.90;72.40
30304;DHT22;17112;48.636;10.152;2023-08-07T00:41:00;13.90;72.50
30304;DHT22;17112;48.636;10.152;2023-08-07T00:43:26;13.90;72.40
30304;DHT22;17112;48.636;10.152;2023-08-07T00:45:52;13.90;72.40
30304;DHT22;17112;48.636;10.152;2023-08-07T00:48:18;13.90;72.50
30304;DHT22;17112;48.636;10.152;2023-08-07T00:50:44;13.90;72.50
30304;DHT22;17112;48.636;10.152;2023-08-07T00:53:11;13.90;72.40
30304;DHT22;17112;48.636;10.152;2023-08-07T00:55:37;13.90;72.50
30304;DHT22;17112;48.636;10.152;2023-08-07T00:58:02;13.90;72.40
30304;DHT22;17112;48.636;10.152;2023-08-07T01:00:29;13.90;72.40
30304;DHT22;17112;48.636;10.152;2023-08-07T01:02:56;13.90;72.40
30304;DHT22;17112;48.636;10.152;2023-08-07T01:05:24;13.90;72.50
30304;DHT22;17112;48.636;10.152;2023-08-07T01:07:53;13.90;72.50
30304;DHT22;17112;48.636;10.152;2023-08-07T01:10:32;13.80;72.40
30304;DHT22;17112;48.636;10.152;2023-08-07T01:13:08;13.80;72.70
30304;DHT22;17112;48.636;10.152;2023-08-07T01:15:35;13.80;72.80
30304;DHT22;17112;48.636;10.152;2023-08-07T01:18:03;13.80;72.50
30304;DHT22;17112;48.636;10.152;2023-08-07T01:20:30;13.90;72.60
30304;DHT22;17112;48.636;10.152;2023-08-07T01:22:56;13.80;72.50
30304;DHT22;17112;48.636;10.152;2023-08-07T01:25:22;13.80;72.50
30304;DHT22;17112;48.636;10.152;2023-08-07T01:28:11;13.80;72.40
30304;DHT22;17112;48.636;10.152;2023-08-07T01:30:42;13.80;72.50
30304;DHT22;17112;48.636;10.152;2023-08-07T01:33:24;13.80;72.30
30304;DHT22;17112;48.636;10.152;2023-08-07T01:35:54;13.80;72.40
30304;DHT22;17112;48.636;10.152;2023-08-07T01:38:24;13.80;72.30
30304;DHT22;17112;48.636;10.152;2023-08-07T01:40:51;13.80;72.30
30304;DHT22;17112;48.636;10.152;2023-08-07T01:43:18;13.80;72.50
30304;DHT22;17112;48.636;10.152;2023-08-07T01:45:44;13.80;72.30
30304;DHT22;17112;48.636;10.152;2023-08-07T01:48:10;13.80;72.10
30304;DHT22;17112;48.636;10.152;2023-08-07T01:50:38;13.70;72.00
30304;DHT22;17112;48.636;10.152;2023-08-07T01:53:04;13.70;72.10
30304;DHT22;17112;48.636;10.152;2023-08-07T01:55:30;13.70;72.20
30304;DHT22;17112;48.636;10.152;2023-08-07T01:57:56;13.70;72.00
30304;DHT22;17112;48.636;10.152;2023-08-07T02:00:21;13.70;71.90
30304;DHT22;17112;48.636;10.152;2023-08-07T02:02:47;13.70;71.90
30304;DHT22;17112;48.636;10.152;2023-08-07T02:05:14;13.70;71.90
30304;DHT22;17112;48.636;10.152;2023-08-07T02:07:40;13.70;72.00
30304;DHT22;17112;48.636;10.152;2023-08-07T02:10:06;13.70;72.00
30304;DHT22;17112;48.636;10.152;2023-08-07T02:12:32;13.70;72.10
30304;DHT22;17112;48.636;10.152;2023-08-07T02:14:58;13.70;72.00
30304;DHT22;17112;48.636;10.152;2023-08-07T02:17:25;13.70;72.00
30304;DHT22;17112;48.636;10.152;2023-08-07T02:19:51;13.70;71.80
30304;DHT22;17112;48.636;10.152;2023-08-07T02:22:17;13.70;71.90
30304;DHT22;17112;48.636;10.152;2023-08-07T02:24:42;13.70;71.80
30304;DHT22;17112;48.636;10.152;2023-08-07T02:27:08;13.70;71.80
30304;DHT22;17112;48.636;10.152;2023-08-07T02:29:34;13.70;71.80
30304;DHT22;17112;48.636;10.152;2023-08-07T02:32:03;13.70;71.80
30304;DHT22;17112;48.636;10.152;2023-08-07T02:34:29;13.70;72.50
30304;DHT22;17112;48.636;10.152;2023-08-07T02:36:55;13.70;71.80
30304;DHT22;17112;48.636;10.152;2023-08-07T02:39:21;13.70;71.80
30304;DHT22;17112;48.636;10.152;2023-08-07T02:41:46;13.70;71.60
30304;DHT22;17112;48.636;10.152;2023-08-07T02:44:12;13.70;71.70
30304;DHT22;17112;48.636;10.152;2023-08-07T02:46:38;13.70;71.60
30304;DHT22;17112;48.636;10.152;2023-08-07T02:49:03;13.70;71.60
30304;DHT22;17112;48.636;10.152;2023-08-07T02:51:30;13.70;71.50
30304;DHT22;17112;48.636;10.152;2023-08-07T02:53:55;13.70;71.50
30304;DHT22;17112;48.636;10.152;2023-08-07T02:56:21;13.70;71.70
30304;DHT22;17112;48.636;10.152;2023-08-07T02:58:47;13.70;71.70
30304;DHT22;17112;48.636;10.152;2023-08-07T03:01:13;13.70;71.60
30304;DHT22;17112;48.636;10.152;2023-08-07T03:03:39;13.70;71.50
30304;DHT22;17112;48.636;10.152;2023-08-07T03:06:04;13.70;71.40
30304;DHT22;17112;48.636;10.152;2023-08-07T03:08:30;13.70;71.30
30304;DHT22;17112;48.636;10.152;2023-08-07T03:10:57;13.70;71.30
30304;DHT22;17112;48.636;10.152;2023-08-07T03:13:24;13.70;71.20
30304;DHT22;17112;48.636;10.152;2023-08-07T03:15:49;13.70;71.20
30304;DHT22;17112;48.636;10.152;2023-08-07T03:18:18;13.70;71.00
30304;DHT22;17112;48.636;10.152;2023-08-07T03:20:44;13.70;70.80
30304;DHT22;17112;48.636;10.152;2023-08-07T03:23:10;13.70;70.80
30304;DHT22;17112;48.636;10.152;2023-08-07T03:25:36;13.70;70.80
30304;DHT22;17112;48.636;10.152;2023-08-07T03:28:02;13.70;70.80
30304;DHT22;17112;48.636;10.152;2023-08-07T03:30:28;13.60;70.80
30304;DHT22;17112;48.636;10.152;2023-08-07T03:32:53;13.60;70.70
30304;DHT22;17112;48.636;10.152;2023-08-07T03:35:19;13.60;70.70
30304;DHT22;17112;48.636;10.152;2023-08-07T03:37:45;13.60;70.80
30304;DHT22;17112;48.636;10.152;2023-08-07T03:40:11;13.60;70.90
30304;DHT22;17112;48.636;10.152;2023-08-07T03:42:36;13.60;70.90
30304;DHT22;17112;48.636;10.152;2023-08-07T03:45:02;13.50;70.80
30304;DHT22;17112;48.636;10.152;2023-08-07T03:47:28;13.50;70.80
30304;DHT22;17112;48.636;10.152;2023-08-07T03:49:53;13.50;70.80
30304;DHT22;17112;48.636;10.152;2023-08-07T03:52:19;13.50;70.80
30304;DHT22;17112;48.636;10.152;2023-08-07T03:54:45;13.50;70.80
30304;DHT22;17112;48.636;10.152;2023-08-07T03:57:10;13.50;70.70
30304;DHT22;17112;48.636;10.152;2023-08-07T03:59:36;13.50;70.70
30304;DHT22;17112;48.636;10.152;2023-08-07T04:02:02;13.50;70.70
30304;DHT22;17112;48.636;10.152;2023-08-07T04:04:28;13.40;70.70
30304;DHT22;17112;48.636;10.152;2023-08-07T04:06:54;13.40;70.60
30304;DHT22;17112;48.636;10.152;2023-08-07T04:09:19;13.40;70.60
30304;DHT22;17112;48.636;10.152;2023-08-07T04:11:45;13.40;70.60
30304;DHT22;17112;48.636;10.152;2023-08-07T04:14:11;13.40;70.60
30304;DHT22;17112;48.636;10.152;2023-08-07T04:16:36;13.40;70.70
30304;DHT22;17112;48.636;10.152;2023-08-07T04:19:03;13.40;70.70
30304;DHT22;17112;48.636;10.152;2023-08-07T04:21:30;13.40;70.60
30304;DHT22;17112;48.636;10.152;2023-08-07T04:23:56;13.40;70.50
30304;DHT22;17112;48.636;10.152;2023-08-07T04:26:21;13.40;70.40
30304;DHT22;17112;48.636;10.152;2023-08-07T04:28:47;13.40;70.40
30304;DHT22;17112;48.636;10.152;2023-08-07T04:31:13;13.50;70.20
30304;DHT22;17112;48.636;10.152;2023-08-07T04:33:39;13.50;70.20
30304;DHT22;17112;48.636;10.152;2023-08-07T04:36:05;13.50;70.10
30304;DHT22;17112;48.636;10.152;2023-08-07T04:38:30;13.50;70.10
30304;DHT22;17112;48.636;10.152;2023-08-07T04:40:56;13.60;70.10
30304;DHT22;17112;48.636;10.152;2023-08-07T04:43:22;13.60;70.00
30304;DHT22;17112;48.636;10.152;2023-08-07T04:45:48;13.60;69.90
30304;DHT22;17112;48.636;10.152;2023-08-07T04:48:14;13.60;69.90
30304;DHT22;17112;48.636;10.152;2023-08-07T04:50:40;13.60;69.60
30304;DHT22;17112;48.636;10.152;2023-08-07T04:53:06;13.60;69.50
30304;DHT22;17112;48.636;10.152;2023-08-07T04:55:32;13.60;69.40
30304;DHT22;17112;48.636;10.152;2023-08-07T04:57:58;13.60;69.40
30304;DHT22;17112;48.636;10.152;2023-08-07T05:00:24;13.60;69.50
30304;DHT22;17112;48.636;10.152;2023-08-07T05:02:50;13.60;69.50
30304;DHT22;17112;48.636;10.152;2023-08-07T05:05:16;13.60;69.50
30304;DHT22;17112;48.636;10.152;2023-08-07T05:07:44;13.60;69.60
30304;DHT22;17112;48.636;10.152;2023-08-07T05:10:10;13.60;69.60
30304;DHT22;17112;48.636;10.152;2023-08-07T05:12:35;13.60;69.50
30304;DHT22;17112;48.636;10.152;2023-08-07T05:15:01;13.70;69.50
30304;DHT22;17112;48.636;10.152;2023-08-07T05:17:27;13.70;69.30
30304;DHT22;17112;48.636;10.152;2023-08-07T05:19:53;13.70;69.40
30304;DHT22;17112;48.636;10.152;2023-08-07T05:22:18;13.70;69.30
30304;DHT22;17112;48.636;10.152;2023-08-07T05:24:44;13.80;69.20
30304;DHT22;17112;48.636;10.152;2023-08-07T05:27:11;13.80;69.30
30304;DHT22;17112;48.636;10.152;2023-08-07T05:29:37;13.80;69.20
30304;DHT22;17112;48.636;10.152;2023-08-07T05:32:10;13.90;69.10
30304;DHT22;17112;48.636;10.152;2023-08-07T05:34:36;13.90;69.10
30304;DHT22;17112;48.636;10.152;2023-08-07T05:37:01;13.90;69.10
30304;DHT22;17112;48.636;10.152;2023-08-07T05:39:27;14.00;69.10
30304;DHT22;17112;48.636;10.152;2023-08-07T05:41:52;14.00;68.90
30304;DHT22;17112;48.636;10.152;2023-08-07T05:44:20;14.10;69.00
30304;DHT22;17112;48.636;10.152;2023-08-07T05:46:46;14.20;69.20
30304;DHT22;17112;48.636;10.152;2023-08-07T05:49:11;14.20;69.00
30304;DHT22;17112;48.636;10.152;2023-08-07T05:51:37;14.30;68.60
30304;DHT22;17112;48.636;10.152;2023-08-07T05:54:03;14.40;68.70
30304;DHT22;17112;48.636;10.152;2023-08-07T05:56:28;14.40;68.60
30304;DHT22;17112;48.636;10.152;2023-08-07T05:58:54;14.50;68.60
30304;DHT22;17112;48.636;10.152;2023-08-07T06:01:20;14.50;68.20
30304;DHT22;17112;48.636;10.152;2023-08-07T06:03:45;14.60;67.90
30304;DHT22;17112;48.636;10.152;2023-08-07T06:06:12;14.60;67.90
30304;DHT22;17112;48.636;10.152;2023-08-07T06:08:37;14.60;67.70
30304;DHT22;17112;48.636;10.152;2023-08-07T06:11:03;14.70;67.70
30304;DHT22;17112;48.636;10.152;2023-08-07T06:13:30;14.70;67.60
30304;DHT22;17112;48.636;10.152;2023-08-07T06:15:56;14.70;67.40
30304;DHT22;17112;48.636;10.152;2023-08-07T06:18:22;14.80;67.30
30304;DHT22;17112;48.636;10.152;2023-08-07T06:20:47;14.80;66.90
30304;DHT22;17112;48.636;10.152;2023-08-07T06:23:13;14.80;66.40
30304;DHT22;17112;48.636;10.152;2023-08-07T06:25:38;14.90;66.60
30304;DHT22;17112;48.636;10.152;2023-08-07T06:28:04;14.90;66.80
30304;DHT22;17112;48.636;10.152;2023-08-07T06:30:33;15.00;66.70
30304;DHT22;17112;48.636;10.152;2023-08-07T06:32:58;15.10;66.50
30304;DHT22;17112;48.636;10.152;2023-08-07T06:35:24;15.10;66.60
30304;DHT22;17112;48.636;10.152;2023-08-07T06:37:50;15.20;66.50
30304;DHT22;17112;48.636;10.152;2023-08-07T06:40:15;15.30;66.50
30304;DHT22;17112;48.636;10.152;2023-08-07T06:42:41;15.30;65.30
30304;DHT22;17112;48.636;10.152;2023-08-07T06:45:07;15.40;65.40
30304;DHT22;17112;48.636;10.152;2023-08-07T06:47:33;15.40;64.50
30304;DHT22;17112;48.636;10.152;2023-08-07T06:49:58;15.40;64.00
30304;DHT22;17112;48.636;10.152;2023-08-07T06:52:24;15.40;63.90
30304;DHT22;17112;48.636;10.152;2023-08-07T06:54:50;15.40;64.10
30304;DHT22;17112;48.636;10.152;2023-08-07T06:57:15;15.40;64.10
30304;DHT22;17112;48.636;10.152;2023-08-07T06:59:41;15.40;64.40
30304;DHT22;17112;48.636;10.152;2023-08-07T07:02:06;15.30;64.50
30304;DHT22;17112;48.636;10.152;2023-08-07T07:04:32;15.40;64.90
30304;DHT22;17112;48.636;10.152;2023-08-07T07:06:58;15.50;65.00
30304;DHT22;17112;48.636;10.152;2023-08-07T07:09:24;15.60;64.20
30304;DHT22;17112;48.636;10.152;2023-08-07T07:11:50;15.70;64.00
30304;DHT22;17112;48.636;10.152;2023-08-07T07:14:16;15.80;63.90
30304;DHT22;17112;48.636;10.152;2023-08-07T07:16:41;15.80;63.90
30304;DHT22;17112;48.636;10.152;2023-08-07T07:19:08;15.90;63.60
30304;DHT22;17112;48.636;10.152;2023-08-07T07:21:35;16.00;63.00
30304;DHT22;17112;48.636;10.152;2023-08-07T07:24:02;16.10;62.80
30304;DHT22;17112;48.636;10.152;2023-08-07T07:26:28;16.20;62.20
30304;DHT22;17112;48.636;10.152;2023-08-07T07:28:54;16.30;61.80
30304;DHT22;17112;48.636;10.152;2023-08-07T07:31:19;16.40;61.80
30304;DHT22;17112;48.636;10.152;2023-08-07T07:33:45;16.40;61.00
30304;DHT22;17112;48.636;10.152;2023-08-07T07:36:18;16.50;61.10
30304;DHT22;17112;48.636;10.152;2023-08-07T07:38:47;16.50;60.50
30304;DHT22;17112;48.636;10.152;2023-08-07T07:41:14;16.50;60.80
30304;DHT22;17112;48.636;10.152;2023-08-07T07:43:40;16.50;60.60
30304;DHT22;17112;48.636;10.152;2023-08-07T07:46:06;16.60;60.30
30304;DHT22;17112;48.636;10.152;2023-08-07T07:48:31;16.60;60.00
30304;DHT22;17112;48.636;10.152;2023-08-07T07:51:04;16.70;60.60
30304;DHT22;17112;48.636;10.152;2023-08-07T07:53:30;16.80;60.20
30304;DHT22;17112;48.636;10.152;2023-08-07T07:55:56;16.80;59.90
30304;DHT22;17112;48.636;10.152;2023-08-07T07:58:22;16.80;59.30
30304;DHT22;17112;48.636;10.152;2023-08-07T08:00:48;16.80;59.60
30304;DHT22;17112;48.636;10.152;2023-08-07T08:03:14;16.80;58.90
30304;DHT22;17112;48.636;10.152;2023-08-07T08:05:40;16.80;58.90
30304;DHT22;17112;48.636;10.152;2023-08-07T08:08:06;16.70;58.90
30304;DHT22;17112;48.636;10.152;2023-08-07T08:10:35;16.70;58.70
30304;DHT22;17112;48.636;10.152;2023-08-07T08:13:01;16.70;58.10
30304;DHT22;17112;48.636;10.152;2023-08-07T08:15:29;16.70;59.40
30304;DHT22;17112;48.636;10.152;2023-08-07T08:17:55;16.70;59.60
30304;DHT22;17112;48.636;10.152;2023-08-07T08:20:21;16.80;60.00
30304;DHT22;17112;48.636;10.152;2023-08-07T08:22:47;16.90;59.60
30304;DHT22;17112;48.636;10.152;2023-08-07T08:25:13;17.00;59.10
30304;DHT22;17112;48.636;10.152;2023-08-07T08:27:39;17.10;58.50
30304;DHT22;17112;48.636;10.152;2023-08-07T08:30:05;17.10;58.60
30304;DHT22;17112;48.636;10.152;2023-08-07T08:32:32;17.20;58.60
30304;DHT22;17112;48.636;10.152;2023-08-07T08:34:57;17.30;58.60
30304;DHT22;17112;48.636;10.152;2023-08-07T08:37:23;17.40;58.20
30304;DHT22;17112;48.636;10.152;2023-08-07T08:39:49;17.50;57.80
30304;DHT22;17112;48.636;10.152;2023-08-07T08:42:15;17.50;57.70
30304;DHT22;17112;48.636;10.152;2023-08-07T08:44:52;17.40;57.40
30304;DHT22;17112;48.636;10.152;2023-08-07T08:47:18;17.40;57.40
30304;DHT22;17112;48.636;10.152;2023-08-07T08:50:06;17.30;57.50
30304;DHT22;17112;48.636;10.152;2023-08-07T08:52:32;17.20;57.20
30304;DHT22;17112;48.636;10.152;2023-08-07T08:54:59;17.10;57.60
30304;DHT22;17112;48.636;10.152;2023-08-07T08:57:25;17.00;57.80
30304;DHT22;17112;48.636;10.152;2023-08-07T08:59:55;17.00;57.90
30304;DHT22;17112;48.636;10.152;2023-08-07T09:02:22;17.00;58.10
30304;DHT22;17112;48.636;10.152;2023-08-07T09:04:47;16.90;58.20
30304;DHT22;17112;48.636;10.152;2023-08-07T09:07:15;17.00;58.20
30304;DHT22;17112;48.636;10.152;2023-08-07T09:09:41;17.00;58.40
30304;DHT22;17112;48.636;10.152;2023-08-07T09:12:20;17.00;58.20
30304;DHT22;17112;48.636;10.152;2023-08-07T09:14:56;17.10;57.30
30304;DHT22;17112;48.636;10.152;2023-08-07T09:17:29;17.10;58.30
30304;DHT22;17112;48.636;10.152;2023-08-07T09:19:58;17.20;57.80
30304;DHT22;17112;48.636;10.152;2023-08-07T09:22:24;17.30;58.00
30304;DHT22;17112;48.636;10.152;2023-08-07T09:24:50;17.30;57.90
30304;DHT22;17112;48.636;10.152;2023-08-07T09:27:16;17.30;57.60
30304;DHT22;17112;48.636;10.152;2023-08-07T09:29:46;17.30;57.40
30304;DHT22;17112;48.636;10.152;2023-08-07T09:32:12;17.30;57.50
30304;DHT22;17112;48.636;10.152;2023-08-07T09:34:42;17.40;57.20
30304;DHT22;17112;48.636;10.152;2023-08-07T09:37:10;17.40;57.40
30304;DHT22;17112;48.636;10.152;2023-08-07T09:39:37;17.50;57.40
30304;DHT22;17112;48.636;10.152;2023-08-07T09:42:13;17.50;57.30
30304;DHT22;17112;48.636;10.152;2023-08-07T09:44:40;17.50;56.90
30304;DHT22;17112;48.636;10.152;2023-08-07T09:47:14;17.50;57.10
30304;DHT22;17112;48.636;10.152;2023-08-07T09:49:41;17.50;56.00
30304;DHT22;17112;48.636;10.152;2023-08-07T09:52:08;17.50;57.00
30304;DHT22;17112;48.636;10.152;2023-08-07T09:54:34;17.50;55.80
30304;DHT22;17112;48.636;10.152;2023-08-07T09:57:04;17.50;55.10
30304;DHT22;17112;48.636;10.152;2023-08-07T09:59:30;17.60;54.90
30304;DHT22;17112;48.636;10.152;2023-08-07T10:01:57;17.60;55.10
30304;DHT22;17112;48.636;10.152;2023-08-07T10:04:23;17.70;55.00
30304;DHT22;17112;48.636;10.152;2023-08-07T10:06:49;17.70;54.60
30304;DHT22;17112;48.636;10.152;2023-08-07T10:09:15;17.80;54.70
30304;DHT22;17112;48.636;10.152;2023-08-07T10:11:42;17.80;55.30
30304;DHT22;17112;48.636;10.152;2023-08-07T10:14:13;17.90;55.50
30304;DHT22;17112;48.636;10.152;2023-08-07T10:16:40;18.00;55.60
30304;DHT22;17112;48.636;10.152;2023-08-07T10:19:07;18.10;55.00
30304;DHT22;17112;48.636;10.152;2023-08-07T10:21:35;18.30;54.90
30304;DHT22;17112;48.636;10.152;2023-08-07T10:24:04;18.40;54.70
30304;DHT22;17112;48.636;10.152;2023-08-07T10:26:32;18.40;54.50
30304;DHT22;17112;48.636;10.152;2023-08-07T10:29:01;18.60;54.20
30304;DHT22;17112;48.636;10.152;2023-08-07T10:31:29;18.60;52.50
30304;DHT22;17112;48.636;10.152;2023-08-07T10:33:55;18.70;52.20
30304;DHT22;17112;48.636;10.152;2023-08-07T10:36:21;18.70;53.20
30304;DHT22;17112;48.636;10.152;2023-08-07T10:38:50;18.80;54.30
30304;DHT22;17112;48.636;10.152;2023-08-07T10:41:18;18.90;53.50
30304;DHT22;17112;48.636;10.152;2023-08-07T10:43:46;19.00;52.50
30304;DHT22;17112;48.636;10.152;2023-08-07T10:46:16;19.10;51.70
30304;DHT22;17112;48.636;10.152;2023-08-07T10:48:54;19.10;51.60
30304;DHT22;17112;48.636;10.152;2023-08-07T10:51:20;19.20;50.60
30304;DHT22;17112;48.636;10.152;2023-08-07T10:53:49;19.20;51.90
30304;DHT22;17112;48.636;10.152;2023-08-07T10:56:33;19.20;50.90
30304;DHT22;17112;48.636;10.152;2023-08-07T10:59:08;19.10;50.70
30304;DHT22;17112;48.636;10.152;2023-08-07T11:01:40;19.10;51.50
30304;DHT22;17112;48.636;10.152;2023-08-07T11:04:09;19.10;52.10
30304;DHT22;17112;48.636;10.152;2023-08-07T11:06:35;19.20;51.70
30304;DHT22;17112;48.636;10.152;2023-08-07T11:09:08;19.20;51.80
30304;DHT22;17112;48.636;10.152;2023-08-07T11:11:38;19.20;50.60
30304;DHT22;17112;48.636;10.152;2023-08-07T11:14:11;19.20;50.30
30304;DHT22;17112;48.636;10.152;2023-08-07T11:16:38;19.20;50.40
30304;DHT22;17112;48.636;10.152;2023-08-07T11:19:05;19.20;50.80
30304;DHT22;17112;48.636;10.152;2023-08-07T11:21:32;19.20;50.90
30304;DHT22;17112;48.636;10.152;2023-08-07T11:23:58;19.30;50.60
30304;DHT22;17112;48.636;10.152;2023-08-07T11:26:23;19.30;50.40
30304;DHT22;17112;48.636;10.152;2023-08-07T11:28:51;19.40;51.10
30304;DHT22;17112;48.636;10.152;2023-08-07T11:31:21;19.40;50.10
30304;DHT22;17112;48.636;10.152;2023-08-07T11:33:52;19.40;50.00
30304;DHT22;17112;48.636;10.152;2023-08-07T11:36:18;19.50;50.20
30304;DHT22;17112;48.636;10.152;2023-08-07T11:38:44;19.50;50.60
30304;DHT22;17112;48.636;10.152;2023-08-07T11:41:12;19.60;50.10
30304;DHT22;17112;48.636;10.152;2023-08-07T11:43:39;19.70;50.10
30304;DHT22;17112;48.636;10.152;2023-08-07T11:46:06;19.70;50.70
30304;DHT22;17112;48.636;10.152;2023-08-07T11:48:34;19.80;50.20
30304;DHT22;17112;48.636;10.152;2023-08-07T11:51:00;19.90;49.10
30304;DHT22;17112;48.636;10.152;2023-08-07T11:53:28;19.90;48.40
30304;DHT22;17112;48.636;10.152;2023-08-07T11:55:59;19.90;49.00
30304;DHT22;17112;48.636;10.152;2023-08-07T11:58:27;19.90;48.50
30304;DHT22;17112;48.636;10.152;2023-08-07T12:00:53;19.80;49.20
30304;DHT22;17112;48.636;10.152;2023-08-07T12:03:27;19.80;49.20
30304;DHT22;17112;48.636;10.152;2023-08-07T12:05:56;19.80;49.00
30304;DHT22;17112;48.636;10.152;2023-08-07T12:08:21;19.80;49.10
30304;DHT22;17112;48.636;10.152;2023-08-07T12:10:53;19.80;49.70
30304;DHT22;17112;48.636;10.152;2023-08-07T12:13:25;19.90;49.30
30304;DHT22;17112;48.636;10.152;2023-08-07T12:15:56;19.90;48.40
30304;DHT22;17112;48.636;10.152;2023-08-07T12:18:22;20.00;48.90
30304;DHT22;17112;48.636;10.152;2023-08-07T12:20:52;19.90;48.80
30304;DHT22;17112;48.636;10.152;2023-08-07T12:23:20;19.80;48.60
30304;DHT22;17112;48.636;10.152;2023-08-07T12:25:46;19.80;48.70
30304;DHT22;17112;48.636;10.152;2023-08-07T12:28:12;19.60;48.40
30304;DHT22;17112;48.636;10.152;2023-08-07T12:30:38;19.50;48.90
30304;DHT22;17112;48.636;10.152;2023-08-07T12:33:05;19.40;48.70
30304;DHT22;17112;48.636;10.152;2023-08-07T12:35:31;19.30;49.50
30304;DHT22;17112;48.636;10.152;2023-08-07T12:37:57;19.30;48.90
30304;DHT22;17112;48.636;10.152;2023-08-07T12:40:23;19.30;49.70
30304;DHT22;17112;48.636;10.152;2023-08-07T12:42:52;19.20;49.70
30304;DHT22;17112;48.636;10.152;2023-08-07T12:45:17;19.20;50.10
30304;DHT22;17112;48.636;10.152;2023-08-07T12:47:45;19.30;50.60
30304;DHT22;17112;48.636;10.152;2023-08-07T12:50:11;19.30;49.90
30304;DHT22;17112;48.636;10.152;2023-08-07T12:52:37;19.40;49.80
30304;DHT22;17112;48.636;10.152;2023-08-07T12:55:03;19.40;50.00
30304;DHT22;17112;48.636;10.152;2023-08-07T12:57:31;19.50;49.90
30304;DHT22;17112;48.636;10.152;2023-08-07T12:59:57;19.50;50.20
30304;DHT22;17112;48.636;10.152;2023-08-07T13:02:22;19.60;49.90
30304;DHT22;17112;48.636;10.152;2023-08-07T13:04:48;19.60;49.70
30304;DHT22;17112;48.636;10.152;2023-08-07T13:07:14;19.70;49.90
30304;DHT22;17112;48.636;10.152;2023-08-07T13:09:39;19.60;48.60
30304;DHT22;17112;48.636;10.152;2023-08-07T13:12:05;19.60;49.40
30304;DHT22;17112;48.636;10.152;2023-08-07T13:14:31;19.60;49.20
30304;DHT22;17112;48.636;10.152;2023-08-07T13:16:57;19.60;49.50
30304;DHT22;17112;48.636;10.152;2023-08-07T13:19:22;19.50;49.00
30304;DHT22;17112;48.636;10.152;2023-08-07T13:21:48;19.60;49.90
30304;DHT22;17112;48.636;10.152;2023-08-07T13:24:14;19.60;49.80
30304;DHT22;17112;48.636;10.152;2023-08-07T13:26:39;19.60;48.90
30304;DHT22;17112;48.636;10.152;2023-08-07T13:29:11;19.60;49.40
30304;DHT22;17112;48.636;10.152;2023-08-07T13:31:37;19.60;49.20
30304;DHT22;17112;48.636;10.152;2023-08-07T13:34:02;19.50;49.30
30304;DHT22;17112;48.636;10.152;2023-08-07T13:36:36;19.40;49.30
30304;DHT22;17112;48.636;10.152;2023-08-07T13:39:03;19.30;48.70
30304;DHT22;17112;48.636;10.152;2023-08-07T13:41:29;19.20;48.90
30304;DHT22;17112;48.636;10.152;2023-08-07T13:43:55;19.10;49.70
30304;DHT22;17112;48.636;10.152;2023-08-07T13:46:20;19.00;49.70
30304;DHT22;17112;48.636;10.152;2023-08-07T13:48:46;19.00;49.90
30304;DHT22;17112;48.636;10.152;2023-08-07T13:51:12;19.10;50.30
30304;DHT22;17112;48.636;10.152;2023-08-07T13:53:37;19.10;50.40
30304;DHT22;17112;48.636;10.152;2023-08-07T13:56:03;19.20;50.90
30304;DHT22;17112;48.636;10.152;2023-08-07T13:58:29;19.20;50.40
30304;DHT22;17112;48.636;10.152;2023-08-07T14:00:56;19.20;50.10
30304;DHT22;17112;48.636;10.152;2023-08-07T14:03:22;19.30;50.30
30304;DHT22;17112;48.636;10.152;2023-08-07T14:05:48;19.30;50.20
30304;DHT22;17112;48.636;10.152;2023-08-07T14:08:15;19.30;50.30
30304;DHT22;17112;48.636;10.152;2023-08-07T14:10:41;19.20;50.20
30304;DHT22;17112;48.636;10.152;2023-08-07T14:13:07;19.10;50.50
30304;DHT22;17112;48.636;10.152;2023-08-07T14:15:35;19.10;50.40
30304;DHT22;17112;48.636;10.152;2023-08-07T14:18:01;18.90;51.10
30304;DHT22;17112;48.636;10.152;2023-08-07T14:20:27;18.90;51.90
30304;DHT22;17112;48.636;10.152;2023-08-07T14:22:52;18.80;51.80
30304;DHT22;17112;48.636;10.152;2023-08-07T14:25:19;18.80;52.00
30304;DHT22;17112;48.636;10.152;2023-08-07T14:27:47;18.70;52.50
30304;DHT22;17112;48.636;10.152;2023-08-07T14:30:12;18.70;52.80
30304;DHT22;17112;48.636;10.152;2023-08-07T14:32:38;18.70;52.60
30304;DHT22;17112;48.636;10.152;2023-08-07T14:35:04;18.70;53.10
30304;DHT22;17112;48.636;10.152;2023-08-07T14:37:30;18.60;53.10
30304;DHT22;17112;48.636;10.152;2023-08-07T14:39:56;18.60;53.40
30304;DHT22;17112;48.636;10.152;2023-08-07T14:42:23;18.60;54.20
30304;DHT22;17112;48.636;10.152;2023-08-07T14:44:49;18.70;54.90
30304;DHT22;17112;48.636;10.152;2023-08-07T14:47:14;18.90;55.00
30304;DHT22;17112;48.636;10.152;2023-08-07T14:49:40;19.00;54.70
30304;DHT22;17112;48.636;10.152;2023-08-07T14:52:06;19.20;53.90
30304;DHT22;17112;48.636;10.152;2023-08-07T14:54:33;19.30;53.60
30304;DHT22;17112;48.636;10.152;2023-08-07T14:56:58;19.40;53.90
30304;DHT22;17112;48.636;10.152;2023-08-07T14:59:25;19.40;53.10
30304;DHT22;17112;48.636;10.152;2023-08-07T15:01:51;19.30;53.00
30304;DHT22;17112;48.636;10.152;2023-08-07T15:04:18;19.30;52.80
30304;DHT22;17112;48.636;10.152;2023-08-07T15:06:43;19.20;52.80
30304;DHT22;17112;48.636;10.152;2023-08-07T15:09:13;19.10;53.10
30304;DHT22;17112;48.636;10.152;2023-08-07T15:11:39;19.10;53.10
30304;DHT22;17112;48.636;10.152;2023-08-07T15:14:05;19.20;53.30